Overview Statistics Trail Chart Weather Telemetry Raw packets
 

This is the latest recevied weather packets stored in our database for station/object KW4UJ. If no packets are shown the sender has not sent any weather packets the latest 10 day(s).

<< 53 54 55 56 57 58 59 >>
Time Temp. Humidity Pressure Rain* Wind** Luminosity Snow
1788275630 31.67° C 63% 1017.1 hPa 0 mm - 94 W/m² -
1788275329 31.67° C 64% 1017.1 hPa 0 mm - 98 W/m² -
1788275027 31.11° C 64% 1017.2 hPa 0 mm - 106 W/m² -
1788274724 31.11° C 65% 1016.8 hPa 0 mm - 126 W/m² -
1788274424 30.56° C 66% 1016.9 hPa 0 mm - 132 W/m² -
1788274119 30.56° C 67% 1017 hPa 0 mm - 142 W/m² -
1788273815 31.11° C 65% 1017.4 hPa 0 mm - 153 W/m² -
1788273511 30.56° C 66% 1017.1 hPa 0 mm - 208 W/m² -
1788273207 30.56° C 66% 1017 hPa 0 mm - 214 W/m² -
1788272903 30.56° C 67% 1017 hPa 0 mm - 155 W/m² -
1788272602 30° C 68% 1017 hPa 0 mm - 127 W/m² -
1788272297 30° C 68% 1017 hPa 0 mm - 92 W/m² -
1788271992 30° C 68% 1017.1 hPa 0 mm - 83 W/m² -
1788271691 30.56° C 67% 1017.2 hPa 0 mm - 97 W/m² -
1788271389 30.56° C 65% 1017.1 hPa 0 mm - 108 W/m² -
1788271084 30° C 65% 1017.1 hPa 0 mm - 156 W/m² -
1788270779 30° C 67% 1017 hPa 0 mm - 88 W/m² -
1788270475 30° C 68% 1017.2 hPa 0 mm - 76 W/m² -
1788270175 30° C 70% 1016.9 hPa 0 mm - 83 W/m² -
1788269875 30° C 69% 1017.2 hPa 0 mm - 80 W/m² -
1788269574 30° C 72% 1017.1 hPa 0 mm - 72 W/m² -
1788269273 29.44° C 74% 1017 hPa 0 mm - 128 W/m² -
1788268968 29.44° C 72% 1017.2 hPa 0 mm - 101 W/m² -
1788268663 28.89° C 73% 1017.3 hPa 0 mm - 210 W/m² -
1788268362 28.89° C 76% 1017.3 hPa 0 mm - 219 W/m² -

* Rain latest hour (hover to see other rain measurements)
** Current wind speed in m/s (hover to see current wind gust speed)